Pagrindinis puslapis
METAR-TAF:

METAR-TAF

Oro uostai :

Vilhelmina, Švedija

platuma: 64-34-44N, ilguma: 016-50-00E, Aukštis: 347 m

Dabartinis oras

Ataskaita buvo paskelbta 44 minutes, ne 19:50 UTC
Vėjas 7 kt iš Pietų/Pietryčių
Temperatūra 14°C
Drėgmė 72%
Slėgis 1003 hPa
Matomumas 10 km arba daugiau

METAR: ESNV 171950Z AUTO 15007KT 9999 FEW051/// SCT093/// 14/09 Q1003

Laikas: 22:34 (20:34 UTC)


TAF: trūkstamas

Orai ataskaitas ir orų prognozės (METAR, TAF).

turimą stotys yra geltonos ir raudonos taškus žemėlapyje.

Perkelti pele per norėdami pamatyti stoties vardą.

Tada spustelėkite, norėdami matyti oro stebėjimo ir prognozės.

Norėdami pakeisti žemėlapį: spustelėkite ant žalios mygtukų su juodo kryžiaus žemyn,; žalią mygtuką su brūkšneliu, jei norite nutolinti; arba žalių rodyklių gretimoms žemėlapius.


METAR-TAF: